sensor_id;sensor_type;location;lat;lon;timestamp;pressure;altitude;pressure_sealevel;temperature;humidity
30856;BME280;17570;0.000;0.000;2022-07-18T06:25:23;97709.33;;;23.14;36.73
30856;BME280;17570;0.000;0.000;2022-07-18T06:27:50;97706.82;;;24.57;34.13
30856;BME280;17570;0.000;0.000;2022-07-18T06:30:18;97705.79;;;26.17;30.51
30856;BME280;17570;0.000;0.000;2022-07-18T10:32:21;97666.73;;;30.20;30.35
30856;BME280;17570;0.000;0.000;2022-07-18T10:34:47;97664.00;;;31.90;28.17
30856;BME280;17570;0.000;0.000;2022-07-18T10:37:15;97663.92;;;32.86;25.80
30856;BME280;17570;0.000;0.000;2022-07-18T10:39:44;97658.16;;;33.38;25.36
30856;BME280;17570;0.000;0.000;2022-07-18T10:42:14;97663.92;;;33.68;25.61
30856;BME280;17570;0.000;0.000;2022-07-18T10:44:44;97665.19;;;33.88;25.42
30856;BME280;17570;0.000;0.000;2022-07-18T10:47:15;97661.85;;;34.03;24.62
30856;BME280;17570;0.000;0.000;2022-07-18T10:57:34;97654.71;;;34.50;24.96
30856;BME280;17570;0.000;0.000;2022-07-18T11:00:08;97641.05;;;34.62;24.91
30856;BME280;17570;0.000;0.000;2022-07-18T11:02:39;97638.46;;;34.83;24.83
30856;BME280;17570;0.000;0.000;2022-07-18T11:21:18;97623.77;;;36.04;21.98
30856;BME280;17570;0.000;0.000;2022-07-18T11:23:47;97625.13;;;36.22;21.82
30856;BME280;17570;0.000;0.000;2022-07-18T11:26:22;97630.79;;;36.41;22.35
30856;BME280;17570;0.000;0.000;2022-07-18T11:28:59;97629.44;;;36.64;21.75
30856;BME280;17570;0.000;0.000;2022-07-18T11:31:27;97628.33;;;36.80;22.28
30856;BME280;17570;0.000;0.000;2022-07-18T11:33:55;97625.86;;;36.99;21.87
30856;BME280;17570;0.000;0.000;2022-07-18T11:36:27;97621.70;;;37.22;22.02
30856;BME280;17570;0.000;0.000;2022-07-18T11:38:53;97629.75;;;37.42;21.25
30856;BME280;17570;0.000;0.000;2022-07-18T11:41:21;97627.75;;;37.58;21.03
30856;BME280;17570;0.000;0.000;2022-07-18T11:43:49;97622.77;;;37.75;21.31
30856;BME280;17570;0.000;0.000;2022-07-18T11:46:18;97615.09;;;37.93;20.57
30856;BME280;17570;0.000;0.000;2022-07-18T11:48:47;97612.80;;;38.05;20.32
30856;BME280;17570;0.000;0.000;2022-07-18T11:51:18;97605.41;;;38.16;19.77
30856;BME280;17570;0.000;0.000;2022-07-18T11:53:47;97603.09;;;38.33;19.73
30856;BME280;17570;0.000;0.000;2022-07-18T11:56:16;97603.23;;;38.47;20.80
30856;BME280;17570;0.000;0.000;2022-07-18T11:58:44;97603.30;;;38.66;19.77
30856;BME280;17570;0.000;0.000;2022-07-18T12:01:12;97597.39;;;38.88;19.86
30856;BME280;17570;0.000;0.000;2022-07-18T12:03:41;97593.97;;;39.01;20.40
30856;BME280;17570;0.000;0.000;2022-07-18T12:06:10;97591.59;;;39.18;20.90
30856;BME280;17570;0.000;0.000;2022-07-18T12:08:42;97592.73;;;39.36;20.60
30856;BME280;17570;0.000;0.000;2022-07-18T12:11:18;97591.86;;;39.60;19.95
30856;BME280;17570;0.000;0.000;2022-07-18T12:13:54;97585.23;;;39.85;19.67
30856;BME280;17570;0.000;0.000;2022-07-18T12:18:58;97571.59;;;40.36;19.32
30856;BME280;17570;0.000;0.000;2022-07-18T12:21:24;97583.13;;;40.61;18.90
30856;BME280;17570;0.000;0.000;2022-07-18T12:23:51;97578.27;;;40.85;18.66
30856;BME280;17570;0.000;0.000;2022-07-18T12:26:26;97589.00;;;41.09;18.39
30856;BME280;17570;0.000;0.000;2022-07-18T12:29:11;97582.89;;;41.26;18.22
30856;BME280;17570;0.000;0.000;2022-07-18T12:31:36;97571.88;;;41.45;18.05
30856;BME280;17570;0.000;0.000;2022-07-18T12:34:16;97576.35;;;41.63;18.22
30856;BME280;17570;0.000;0.000;2022-07-18T12:36:52;97575.14;;;41.92;17.77
30856;BME280;17570;0.000;0.000;2022-07-18T12:39:34;97577.37;;;42.12;17.82
30856;BME280;17570;0.000;0.000;2022-07-18T12:41:59;97571.39;;;42.33;17.73
30856;BME280;17570;0.000;0.000;2022-07-18T12:44:27;97568.61;;;42.55;17.34
30856;BME280;17570;0.000;0.000;2022-07-18T12:46:55;97575.30;;;42.80;20.88
30856;BME280;17570;0.000;0.000;2022-07-18T12:49:24;97571.39;;;43.12;19.76
30856;BME280;17570;0.000;0.000;2022-07-18T12:52:14;97566.13;;;43.50;20.03
30856;BME280;17570;0.000;0.000;2022-07-18T12:54:41;97571.13;;;43.57;19.81
30856;BME280;17570;0.000;0.000;2022-07-18T12:57:09;97571.77;;;43.80;19.48
30856;BME280;17570;0.000;0.000;2022-07-18T12:59:36;97573.20;;;44.03;18.14
30856;BME280;17570;0.000;0.000;2022-07-18T13:02:06;97566.41;;;44.27;18.03
30856;BME280;17570;0.000;0.000;2022-07-18T13:04:33;97565.67;;;44.47;17.19
30856;BME280;17570;0.000;0.000;2022-07-18T13:07:01;97561.59;;;44.62;17.14
30856;BME280;17570;0.000;0.000;2022-07-18T13:11:45;97566.34;;;44.83;16.52
30856;BME280;17570;0.000;0.000;2022-07-18T13:14:14;97564.98;;;44.68;16.67
30856;BME280;17570;0.000;0.000;2022-07-18T13:16:43;97562.05;;;45.02;16.08
30856;BME280;17570;0.000;0.000;2022-07-18T13:19:11;97566.36;;;45.33;15.98
30856;BME280;17570;0.000;0.000;2022-07-18T13:21:39;97567.31;;;45.58;15.75
30856;BME280;17570;0.000;0.000;2022-07-18T13:24:07;97562.78;;;45.74;14.84
30856;BME280;17570;0.000;0.000;2022-07-18T13:26:35;97570.67;;;45.97;16.28
30856;BME280;17570;0.000;0.000;2022-07-18T13:29:06;97562.47;;;46.09;15.73
30856;BME280;17570;0.000;0.000;2022-07-18T13:31:34;97564.68;;;46.16;15.14
30856;BME280;17570;0.000;0.000;2022-07-18T13:34:03;97558.07;;;46.29;14.89
30856;BME280;17570;0.000;0.000;2022-07-18T13:36:31;97557.87;;;46.46;14.28
30856;BME280;17570;0.000;0.000;2022-07-18T13:38:58;97563.50;;;46.62;14.39
30856;BME280;17570;0.000;0.000;2022-07-18T13:41:28;97555.03;;;46.79;14.29
30856;BME280;17570;0.000;0.000;2022-07-18T13:43:56;97560.20;;;46.93;14.02
30856;BME280;17570;0.000;0.000;2022-07-18T13:46:23;97557.52;;;47.09;13.62
30856;BME280;17570;0.000;0.000;2022-07-18T13:48:51;97548.58;;;47.24;13.65
30856;BME280;17570;0.000;0.000;2022-07-18T13:51:18;97544.75;;;47.41;13.80
30856;BME280;17570;0.000;0.000;2022-07-18T13:53:46;97554.67;;;47.58;13.83
30856;BME280;17570;0.000;0.000;2022-07-18T13:56:13;97550.75;;;47.71;13.48
30856;BME280;17570;0.000;0.000;2022-07-18T13:58:41;97547.58;;;47.85;13.39
30856;BME280;17570;0.000;0.000;2022-07-18T14:01:08;97549.91;;;47.99;12.55
30856;BME280;17570;0.000;0.000;2022-07-18T14:03:36;97547.89;;;48.12;12.46
30856;BME280;17570;0.000;0.000;2022-07-18T14:06:03;97541.52;;;48.23;12.32
30856;BME280;17570;0.000;0.000;2022-07-18T14:08:31;97545.33;;;48.35;12.25
30856;BME280;17570;0.000;0.000;2022-07-18T14:10:59;97551.58;;;48.47;12.26
30856;BME280;17570;0.000;0.000;2022-07-18T14:13:26;97549.87;;;48.59;11.80
30856;BME280;17570;0.000;0.000;2022-07-18T14:15:54;97544.69;;;48.73;11.79
30856;BME280;17570;0.000;0.000;2022-07-18T14:18:21;97546.58;;;48.85;11.80
30856;BME280;17570;0.000;0.000;2022-07-18T14:20:49;97549.56;;;48.95;11.78
30856;BME280;17570;0.000;0.000;2022-07-18T14:23:17;97545.44;;;49.05;11.87
30856;BME280;17570;0.000;0.000;2022-07-18T14:25:45;97549.19;;;49.13;11.42
30856;BME280;17570;0.000;0.000;2022-07-18T14:28:13;97552.46;;;49.18;11.43
30856;BME280;17570;0.000;0.000;2022-07-18T14:30:40;97549.86;;;49.25;11.46
30856;BME280;17570;0.000;0.000;2022-07-18T14:33:08;97553.50;;;49.29;11.30
30856;BME280;17570;0.000;0.000;2022-07-18T14:35:35;97544.64;;;49.20;11.40
30856;BME280;17570;0.000;0.000;2022-07-18T14:38:03;97543.62;;;48.93;10.72
30856;BME280;17570;0.000;0.000;2022-07-18T14:40:30;97540.19;;;48.49;10.76
30856;BME280;17570;0.000;0.000;2022-07-18T14:42:58;97534.09;;;47.96;9.41
30856;BME280;17570;0.000;0.000;2022-07-18T14:45:26;97538.89;;;47.43;9.57
30856;BME280;17570;0.000;0.000;2022-07-18T14:47:53;97534.52;;;46.89;9.89
30856;BME280;17570;0.000;0.000;2022-07-18T14:50:21;97537.48;;;46.23;10.11
30856;BME280;17570;0.000;0.000;2022-07-18T14:52:48;97535.19;;;45.59;10.57
30856;BME280;17570;0.000;0.000;2022-07-18T14:55:16;97542.55;;;44.95;10.89
30856;BME280;17570;0.000;0.000;2022-07-18T14:57:43;97529.73;;;44.49;11.55
30856;BME280;17570;0.000;0.000;2022-07-18T15:00:11;97535.97;;;44.11;12.26
30856;BME280;17570;0.000;0.000;2022-07-18T15:02:40;97530.57;;;43.68;12.33
30856;BME280;17570;0.000;0.000;2022-07-18T15:05:08;97540.22;;;43.30;12.76
30856;BME280;17570;0.000;0.000;2022-07-18T15:07:36;97531.01;;;43.00;13.37
30856;BME280;17570;0.000;0.000;2022-07-18T15:10:03;97525.02;;;42.72;13.45
30856;BME280;17570;0.000;0.000;2022-07-18T15:12:31;97526.97;;;42.41;13.51
30856;BME280;17570;0.000;0.000;2022-07-18T15:14:59;97526.80;;;42.15;13.97
30856;BME280;17570;0.000;0.000;2022-07-18T15:17:26;97526.36;;;41.90;14.16
30856;BME280;17570;0.000;0.000;2022-07-18T15:19:54;97528.27;;;41.67;14.17
30856;BME280;17570;0.000;0.000;2022-07-18T15:22:21;97526.66;;;41.44;14.56
30856;BME280;17570;0.000;0.000;2022-07-18T15:24:49;97523.38;;;41.19;14.42
30856;BME280;17570;0.000;0.000;2022-07-18T15:27:17;97519.69;;;41.01;14.53
30856;BME280;17570;0.000;0.000;2022-07-18T15:29:44;97524.75;;;40.81;15.06
30856;BME280;17570;0.000;0.000;2022-07-18T15:32:35;97522.05;;;40.53;14.63
30856;BME280;17570;0.000;0.000;2022-07-18T15:34:43;97516.16;;;40.32;14.92
30856;BME280;17570;0.000;0.000;2022-07-18T15:37:11;97519.48;;;40.15;14.81
30856;BME280;17570;0.000;0.000;2022-07-18T15:39:38;97518.69;;;39.96;15.24
30856;BME280;17570;0.000;0.000;2022-07-18T15:42:06;97515.93;;;39.82;15.90
30856;BME280;17570;0.000;0.000;2022-07-18T15:44:33;97514.94;;;39.78;16.62
30856;BME280;17570;0.000;0.000;2022-07-18T15:47:03;97522.80;;;39.61;15.97
30856;BME280;17570;0.000;0.000;2022-07-18T15:49:33;97517.08;;;39.43;16.64
30856;BME280;17570;0.000;0.000;2022-07-18T15:52:01;97520.04;;;39.28;16.41
30856;BME280;17570;0.000;0.000;2022-07-18T15:54:29;97522.12;;;39.12;16.66
30856;BME280;17570;0.000;0.000;2022-07-18T15:56:57;97522.50;;;39.06;16.94
30856;BME280;17570;0.000;0.000;2022-07-18T15:59:24;97517.21;;;38.95;16.86
30856;BME280;17570;0.000;0.000;2022-07-18T16:01:52;97518.42;;;38.84;16.84
30856;BME280;17570;0.000;0.000;2022-07-18T16:04:23;97516.92;;;38.73;17.12
30856;BME280;17570;0.000;0.000;2022-07-18T16:06:50;97521.44;;;38.59;18.69
30856;BME280;17570;0.000;0.000;2022-07-18T16:09:18;97518.48;;;38.55;19.75
30856;BME280;17570;0.000;0.000;2022-07-18T16:11:47;97522.94;;;38.46;17.46
30856;BME280;17570;0.000;0.000;2022-07-18T16:14:15;97517.13;;;38.34;17.00
30856;BME280;17570;0.000;0.000;2022-07-18T16:16:42;97511.25;;;38.21;17.24
30856;BME280;17570;0.000;0.000;2022-07-18T16:19:10;97521.61;;;38.14;18.67
30856;BME280;17570;0.000;0.000;2022-07-18T16:21:38;97519.00;;;38.04;18.05
30856;BME280;17570;0.000;0.000;2022-07-18T16:24:05;97515.59;;;37.93;17.70
30856;BME280;17570;0.000;0.000;2022-07-18T16:26:33;97516.46;;;37.84;18.06
30856;BME280;17570;0.000;0.000;2022-07-18T16:29:00;97517.61;;;37.77;17.60
30856;BME280;17570;0.000;0.000;2022-07-18T16:31:28;97519.58;;;37.67;18.01
30856;BME280;17570;0.000;0.000;2022-07-18T16:33:55;97520.00;;;37.50;18.41
30856;BME280;17570;0.000;0.000;2022-07-18T16:36:23;97526.30;;;37.40;18.64
30856;BME280;17570;0.000;0.000;2022-07-18T16:38:51;97517.34;;;37.35;18.42
30856;BME280;17570;0.000;0.000;2022-07-18T16:41:18;97528.22;;;37.29;19.40
30856;BME280;17570;0.000;0.000;2022-07-18T16:43:46;97520.97;;;37.20;19.68
30856;BME280;17570;0.000;0.000;2022-07-18T16:46:14;97521.29;;;37.13;19.01
30856;BME280;17570;0.000;0.000;2022-07-18T16:48:41;97528.38;;;37.04;19.69
30856;BME280;17570;0.000;0.000;2022-07-18T16:51:09;97529.73;;;37.01;19.17
30856;BME280;17570;0.000;0.000;2022-07-18T16:53:37;97528.98;;;36.86;19.04
30856;BME280;17570;0.000;0.000;2022-07-18T16:56:06;97528.74;;;36.77;19.89
30856;BME280;17570;0.000;0.000;2022-07-18T16:58:33;97525.25;;;36.71;20.12
30856;BME280;17570;0.000;0.000;2022-07-18T17:01:01;97532.06;;;36.59;20.57
30856;BME280;17570;0.000;0.000;2022-07-18T17:03:29;97529.66;;;36.52;20.52
30856;BME280;17570;0.000;0.000;2022-07-18T17:05:57;97533.73;;;36.44;20.85
30856;BME280;17570;0.000;0.000;2022-07-18T17:08:26;97530.22;;;36.34;21.09
30856;BME280;17570;0.000;0.000;2022-07-18T17:10:57;97525.11;;;36.17;21.12
30856;BME280;17570;0.000;0.000;2022-07-18T17:13:25;97525.12;;;36.12;21.47
30856;BME280;17570;0.000;0.000;2022-07-18T17:15:53;97531.35;;;36.02;21.42
30856;BME280;17570;0.000;0.000;2022-07-18T17:18:20;97529.16;;;35.94;21.18
30856;BME280;17570;0.000;0.000;2022-07-18T17:20:48;97522.14;;;35.88;21.65
30856;BME280;17570;0.000;0.000;2022-07-18T17:23:16;97529.98;;;35.84;21.67
30856;BME280;17570;0.000;0.000;2022-07-18T17:25:44;97527.28;;;35.74;22.22
30856;BME280;17570;0.000;0.000;2022-07-18T17:28:12;97535.11;;;35.65;22.20
30856;BME280;17570;0.000;0.000;2022-07-18T17:30:39;97534.02;;;35.61;22.33
30856;BME280;17570;0.000;0.000;2022-07-18T17:33:08;97537.78;;;35.45;22.45
30856;BME280;17570;0.000;0.000;2022-07-18T17:35:36;97539.91;;;35.33;22.70
30856;BME280;17570;0.000;0.000;2022-07-18T17:38:04;97539.60;;;35.19;22.98
30856;BME280;17570;0.000;0.000;2022-07-18T17:40:32;97548.48;;;35.09;23.08
30856;BME280;17570;0.000;0.000;2022-07-18T17:43:00;97549.80;;;35.01;23.36
30856;BME280;17570;0.000;0.000;2022-07-18T17:45:28;97561.63;;;34.95;23.26
30856;BME280;17570;0.000;0.000;2022-07-18T17:47:56;97551.09;;;34.89;24.03
30856;BME280;17570;0.000;0.000;2022-07-18T18:25:02;97591.54;;;29.50;32.13
30856;BME280;17570;0.000;0.000;2022-07-18T18:27:30;97597.01;;;30.74;30.34
30856;BME280;17570;0.000;0.000;2022-07-18T18:29:57;97596.86;;;32.07;27.67
30856;BME280;17570;0.000;0.000;2022-07-18T18:32:25;97603.55;;;32.76;26.59
30856;BME280;17570;0.000;0.000;2022-07-18T18:34:52;97607.42;;;33.03;26.13
30856;BME280;17570;0.000;0.000;2022-07-18T18:37:20;97615.62;;;33.13;26.53
30856;BME280;17570;0.000;0.000;2022-07-18T18:39:47;97615.79;;;33.06;26.50
30856;BME280;17570;0.000;0.000;2022-07-18T18:42:15;97622.76;;;33.02;26.11
30856;BME280;17570;0.000;0.000;2022-07-18T18:44:42;97626.42;;;32.96;26.01
30856;BME280;17570;0.000;0.000;2022-07-18T18:47:10;97631.09;;;32.84;25.81
30856;BME280;17570;0.000;0.000;2022-07-18T18:49:37;97636.31;;;32.73;25.95
30856;BME280;17570;0.000;0.000;2022-07-18T18:52:05;97633.48;;;32.63;26.14
30856;BME280;17570;0.000;0.000;2022-07-18T18:54:32;97637.17;;;32.57;26.42
30856;BME280;17570;0.000;0.000;2022-07-18T18:57:00;97636.28;;;32.52;26.29
30856;BME280;17570;0.000;0.000;2022-07-18T18:59:28;97641.59;;;32.46;26.30
30856;BME280;17570;0.000;0.000;2022-07-18T19:01:57;97645.48;;;32.39;26.48
30856;BME280;17570;0.000;0.000;2022-07-18T19:04:25;97637.50;;;32.27;26.38
30856;BME280;17570;0.000;0.000;2022-07-18T19:06:52;97642.46;;;32.18;26.63
30856;BME280;17570;0.000;0.000;2022-07-18T19:09:20;97651.47;;;32.12;26.57
30856;BME280;17570;0.000;0.000;2022-07-18T19:11:48;97650.83;;;32.05;26.94
30856;BME280;17570;0.000;0.000;2022-07-18T19:14:16;97649.98;;;31.88;27.02
30856;BME280;17570;0.000;0.000;2022-07-18T19:16:44;97661.33;;;31.78;26.94
30856;BME280;17570;0.000;0.000;2022-07-18T19:19:11;97662.05;;;31.73;27.02
30856;BME280;17570;0.000;0.000;2022-07-18T19:21:39;97659.66;;;31.60;27.15
30856;BME280;17570;0.000;0.000;2022-07-18T19:24:06;97667.27;;;31.52;27.30
30856;BME280;17570;0.000;0.000;2022-07-18T19:26:34;97664.27;;;31.48;27.44
30856;BME280;17570;0.000;0.000;2022-07-18T19:29:01;97677.69;;;31.48;27.45
30856;BME280;17570;0.000;0.000;2022-07-18T19:31:29;97671.48;;;31.47;28.20
30856;BME280;17570;0.000;0.000;2022-07-18T19:33:57;97681.75;;;31.50;28.01
30856;BME280;17570;0.000;0.000;2022-07-18T19:36:29;97671.27;;;31.49;27.71
30856;BME280;17570;0.000;0.000;2022-07-18T19:38:56;97676.19;;;31.40;27.48
30856;BME280;17570;0.000;0.000;2022-07-18T19:41:24;97678.42;;;31.32;27.67
30856;BME280;17570;0.000;0.000;2022-07-18T19:43:51;97675.98;;;31.30;28.00
30856;BME280;17570;0.000;0.000;2022-07-18T19:46:19;97680.05;;;31.21;27.78
30856;BME280;17570;0.000;0.000;2022-07-18T19:48:46;97671.34;;;31.02;27.63
30856;BME280;17570;0.000;0.000;2022-07-18T19:51:15;97677.63;;;30.96;27.67
30856;BME280;17570;0.000;0.000;2022-07-18T19:53:43;97682.20;;;30.84;27.76
30856;BME280;17570;0.000;0.000;2022-07-18T19:56:12;97685.09;;;30.82;27.84
30856;BME280;17570;0.000;0.000;2022-07-18T19:58:39;97685.58;;;30.79;28.45
30856;BME280;17570;0.000;0.000;2022-07-18T20:01:07;97686.39;;;30.80;28.24
30856;BME280;17570;0.000;0.000;2022-07-18T20:03:35;97686.39;;;30.80;28.12
30856;BME280;17570;0.000;0.000;2022-07-18T20:06:02;97688.72;;;30.76;28.11
30856;BME280;17570;0.000;0.000;2022-07-18T20:08:30;97682.86;;;30.67;28.10
30856;BME280;17570;0.000;0.000;2022-07-18T20:10:57;97681.36;;;30.60;28.27
30856;BME280;17570;0.000;0.000;2022-07-18T20:13:25;97691.60;;;30.51;28.15
30856;BME280;17570;0.000;0.000;2022-07-18T20:15:53;97683.41;;;30.34;28.32
30856;BME280;17570;0.000;0.000;2022-07-18T20:18:20;97691.78;;;30.26;28.37
30856;BME280;17570;0.000;0.000;2022-07-18T20:20:48;97687.35;;;30.20;28.55
30856;BME280;17570;0.000;0.000;2022-07-18T20:23:15;97687.47;;;30.13;28.62
30856;BME280;17570;0.000;0.000;2022-07-18T20:25:43;97690.72;;;30.15;28.97
30856;BME280;17570;0.000;0.000;2022-07-18T20:28:10;97691.25;;;30.06;28.73
30856;BME280;17570;0.000;0.000;2022-07-18T20:30:38;97688.44;;;30.01;28.92
30856;BME280;17570;0.000;0.000;2022-07-18T20:33:05;97698.78;;;29.97;28.92
30856;BME280;17570;0.000;0.000;2022-07-18T20:35:33;97692.92;;;29.88;29.00
30856;BME280;17570;0.000;0.000;2022-07-18T20:38:00;97698.15;;;29.83;29.17
30856;BME280;17570;0.000;0.000;2022-07-18T20:40:28;97703.12;;;29.80;29.33
30856;BME280;17570;0.000;0.000;2022-07-18T20:42:56;97691.34;;;29.69;29.33
30856;BME280;17570;0.000;0.000;2022-07-18T20:45:23;97705.94;;;29.55;29.49
30856;BME280;17570;0.000;0.000;2022-07-18T20:47:52;97702.42;;;29.54;29.55
30856;BME280;17570;0.000;0.000;2022-07-18T20:50:20;97695.64;;;29.52;29.71
30856;BME280;17570;0.000;0.000;2022-07-18T20:52:48;97695.44;;;29.53;29.48
30856;BME280;17570;0.000;0.000;2022-07-18T20:55:15;97689.95;;;29.48;29.89
30856;BME280;17570;0.000;0.000;2022-07-18T20:57:43;97695.16;;;29.43;30.01
30856;BME280;17570;0.000;0.000;2022-07-18T21:00:11;97696.98;;;29.42;29.83
30856;BME280;17570;0.000;0.000;2022-07-18T21:02:38;97694.17;;;29.37;29.72
30856;BME280;17570;0.000;0.000;2022-07-18T21:05:06;97696.70;;;29.32;29.62
30856;BME280;17570;0.000;0.000;2022-07-18T21:07:33;97694.79;;;29.21;29.86
30856;BME280;17570;0.000;0.000;2022-07-18T21:10:01;97695.37;;;29.23;30.67
30856;BME280;17570;0.000;0.000;2022-07-18T21:12:30;97699.75;;;29.17;29.85
30856;BME280;17570;0.000;0.000;2022-07-18T21:14:57;97699.84;;;29.11;30.67
30856;BME280;17570;0.000;0.000;2022-07-18T21:17:35;97705.86;;;29.06;30.51
30856;BME280;17570;0.000;0.000;2022-07-18T21:20:08;97706.57;;;28.95;30.37
30856;BME280;17570;0.000;0.000;2022-07-18T21:22:33;97705.14;;;28.92;30.32
30856;BME280;17570;0.000;0.000;2022-07-18T21:25:01;97702.89;;;28.89;30.39
30856;BME280;17570;0.000;0.000;2022-07-18T21:27:29;97707.05;;;28.85;30.57
30856;BME280;17570;0.000;0.000;2022-07-18T21:29:56;97705.80;;;28.88;30.27
30856;BME280;17570;0.000;0.000;2022-07-18T21:32:24;97714.25;;;28.85;30.17
30856;BME280;17570;0.000;0.000;2022-07-18T21:34:51;97702.97;;;28.83;30.40
30856;BME280;17570;0.000;0.000;2022-07-18T21:37:19;97708.75;;;28.80;30.14
30856;BME280;17570;0.000;0.000;2022-07-18T21:39:46;97700.58;;;28.75;30.39
30856;BME280;17570;0.000;0.000;2022-07-18T21:42:14;97703.33;;;28.68;30.54
30856;BME280;17570;0.000;0.000;2022-07-18T21:44:42;97704.56;;;28.65;30.47
30856;BME280;17570;0.000;0.000;2022-07-18T21:47:10;97701.31;;;28.63;30.83
30856;BME280;17570;0.000;0.000;2022-07-18T21:49:38;97697.79;;;28.63;30.71
30856;BME280;17570;0.000;0.000;2022-07-18T21:52:05;97700.69;;;28.61;30.61
30856;BME280;17570;0.000;0.000;2022-07-18T21:54:33;97695.78;;;28.58;30.38
30856;BME280;17570;0.000;0.000;2022-07-18T21:57:00;97695.27;;;28.50;30.79
30856;BME280;17570;0.000;0.000;2022-07-18T21:59:28;97694.09;;;28.39;30.64
30856;BME280;17570;0.000;0.000;2022-07-18T22:01:55;97693.50;;;28.37;30.88
30856;BME280;17570;0.000;0.000;2022-07-18T22:04:23;97688.16;;;28.30;30.83
30856;BME280;17570;0.000;0.000;2022-07-18T22:06:50;97693.56;;;28.23;31.09
30856;BME280;17570;0.000;0.000;2022-07-18T22:09:18;97689.92;;;28.18;30.88
30856;BME280;17570;0.000;0.000;2022-07-18T22:11:45;97674.09;;;28.16;30.74
30856;BME280;17570;0.000;0.000;2022-07-18T22:14:13;97676.59;;;28.11;31.05
30856;BME280;17570;0.000;0.000;2022-07-18T22:16:41;97689.75;;;28.13;31.27
30856;BME280;17570;0.000;0.000;2022-07-18T22:19:09;97683.59;;;28.12;31.07
30856;BME280;17570;0.000;0.000;2022-07-18T22:21:37;97683.85;;;28.04;31.34
30856;BME280;17570;0.000;0.000;2022-07-18T22:24:05;97678.73;;;28.03;31.23
30856;BME280;17570;0.000;0.000;2022-07-18T22:26:33;97677.30;;;28.00;31.48
30856;BME280;17570;0.000;0.000;2022-07-18T22:29:01;97673.98;;;28.05;31.54
30856;BME280;17570;0.000;0.000;2022-07-18T22:31:28;97679.33;;;28.05;31.23
30856;BME280;17570;0.000;0.000;2022-07-18T22:33:56;97680.39;;;27.97;31.24
30856;BME280;17570;0.000;0.000;2022-07-18T22:36:24;97676.91;;;27.96;31.22
30856;BME280;17570;0.000;0.000;2022-07-18T22:38:52;97681.03;;;27.92;31.31
30856;BME280;17570;0.000;0.000;2022-07-18T22:41:20;97680.84;;;27.94;31.27
30856;BME280;17570;0.000;0.000;2022-07-18T22:43:48;97673.03;;;27.92;31.17
30856;BME280;17570;0.000;0.000;2022-07-18T22:46:16;97671.01;;;27.88;31.21
30856;BME280;17570;0.000;0.000;2022-07-18T22:48:43;97684.35;;;27.88;31.61
30856;BME280;17570;0.000;0.000;2022-07-18T22:51:11;97674.72;;;27.87;31.38
30856;BME280;17570;0.000;0.000;2022-07-18T22:53:38;97669.20;;;27.82;31.51
30856;BME280;17570;0.000;0.000;2022-07-18T22:56:06;97664.73;;;27.76;31.40
30856;BME280;17570;0.000;0.000;2022-07-18T22:58:33;97667.59;;;27.74;31.46
30856;BME280;17570;0.000;0.000;2022-07-18T23:01:01;97667.59;;;27.74;31.29
30856;BME280;17570;0.000;0.000;2022-07-18T23:03:28;97671.91;;;27.68;31.54
30856;BME280;17570;0.000;0.000;2022-07-18T23:05:56;97672.53;;;27.70;31.74
30856;BME280;17570;0.000;0.000;2022-07-18T23:08:23;97673.77;;;27.68;31.88
30856;BME280;17570;0.000;0.000;2022-07-18T23:10:51;97668.26;;;27.63;31.54
30856;BME280;17570;0.000;0.000;2022-07-18T23:13:18;97676.72;;;27.53;31.87
30856;BME280;17570;0.000;0.000;2022-07-18T23:15:46;97668.94;;;27.52;31.82
30856;BME280;17570;0.000;0.000;2022-07-18T23:18:13;97667.50;;;27.49;31.78
30856;BME280;17570;0.000;0.000;2022-07-18T23:20:41;97672.42;;;27.52;31.77
30856;BME280;17570;0.000;0.000;2022-07-18T23:23:08;97668.54;;;27.48;31.86
30856;BME280;17570;0.000;0.000;2022-07-18T23:25:36;97667.33;;;27.44;32.06
30856;BME280;17570;0.000;0.000;2022-07-18T23:28:04;97673.52;;;27.38;31.97
30856;BME280;17570;0.000;0.000;2022-07-18T23:30:31;97664.89;;;27.36;32.12
30856;BME280;17570;0.000;0.000;2022-07-18T23:32:59;97666.34;;;27.32;31.85
30856;BME280;17570;0.000;0.000;2022-07-18T23:35:26;97669.05;;;27.25;31.87
30856;BME280;17570;0.000;0.000;2022-07-18T23:37:54;97660.41;;;27.30;32.17
30856;BME280;17570;0.000;0.000;2022-07-18T23:40:21;97665.47;;;27.44;33.29
30856;BME280;17570;0.000;0.000;2022-07-18T23:42:49;97665.65;;;27.50;33.01
30856;BME280;17570;0.000;0.000;2022-07-18T23:45:16;97660.54;;;27.48;33.24
30856;BME280;17570;0.000;0.000;2022-07-18T23:47:44;97658.06;;;27.46;32.98
30856;BME280;17570;0.000;0.000;2022-07-18T23:50:13;97666.33;;;27.38;32.97
30856;BME280;17570;0.000;0.000;2022-07-18T23:52:42;97666.34;;;27.32;32.85
30856;BME280;17570;0.000;0.000;2022-07-18T23:55:11;97665.75;;;27.23;32.81
30856;BME280;17570;0.000;0.000;2022-07-18T23:57:38;97669.27;;;27.17;32.80
